4XHLK LLRS-LLHA
Flight info
| Callsign | 4XHLK |
|---|---|
| Flight time | 0h 38m |
| Altitude | 800 |
| Route | LSA CVFR |
| Aircraft | TL20/L-S/C |
Departure
| Time | 2026-04-24 09:57 |
|---|---|
| Airport | Rishon Lezion Airfield (LLRS) |
Arrival
| Time | 2026-04-24 10:36 |
|---|---|
| Airport | Uri Michaeli Haifa International Airport (LLHA) |
| Time | Latitude | Longitude | Altitude | Speed | Heading |
|---|---|---|---|---|---|
| 2026-04-24 09:52 | 31.96714 | 34.75252 | 62 ft | 0 kts | 90° |
| 2026-04-24 09:54 | 31.96714 | 34.75267 | 62 ft | 8 kts | 89° |
| 2026-04-24 09:54 | 31.96700 | 34.75297 | 59 ft | 4 kts | 184° |
| 2026-04-24 09:55 | 31.96654 | 34.75297 | 57 ft | 10 kts | 174° |
| 2026-04-24 09:55 | 31.96585 | 34.75298 | 66 ft | 10 kts | 172° |
| 2026-04-24 09:55 | 31.96531 | 34.75310 | 66 ft | 7 kts | 137° |
| 2026-04-24 09:55 | 31.96512 | 34.75353 | 68 ft | 4 kts | 78° |
| 2026-04-24 09:56 | 31.96518 | 34.75358 | 68 ft | 0 kts | 0° |
| 2026-04-24 09:56 | 31.96823 | 34.75357 | 152 ft | 70 kts | 1° |
| 2026-04-24 09:56 | 31.97377 | 34.75260 | 377 ft | 90 kts | 326° |
| 2026-04-24 09:57 | 31.97937 | 34.74781 | 485 ft | 107 kts | 320° |
| 2026-04-24 09:57 | 31.98521 | 34.74193 | 566 ft | 111 kts | 317° |
| 2026-04-24 09:57 | 31.99070 | 34.73611 | 865 ft | 103 kts | 321° |
| 2026-04-24 09:57 | 31.99747 | 34.73215 | 875 ft | 103 kts | 337° |
| 2026-04-24 09:58 | 32.00362 | 34.72937 | 827 ft | 90 kts | 341° |
| 2026-04-24 09:58 | 32.00960 | 34.72858 | 718 ft | 83 kts | 8° |
| 2026-04-24 09:58 | 32.01521 | 34.72992 | 604 ft | 80 kts | 10° |
| 2026-04-24 09:58 | 32.02049 | 34.73119 | 545 ft | 74 kts | 10° |
| 2026-04-24 09:59 | 32.02532 | 34.73233 | 520 ft | 68 kts | 10° |
| 2026-04-24 09:59 | 32.03002 | 34.73351 | 443 ft | 70 kts | 10° |
| 2026-04-24 09:59 | 32.03486 | 34.73467 | 388 ft | 75 kts | 10° |
| 2026-04-24 09:59 | 32.04023 | 34.73591 | 409 ft | 85 kts | 10° |
| 2026-04-24 10:00 | 32.04617 | 34.73732 | 390 ft | 87 kts | 11° |
| 2026-04-24 10:00 | 32.05227 | 34.73880 | 291 ft | 91 kts | 11° |
| 2026-04-24 10:00 | 32.05871 | 34.74043 | 165 ft | 99 kts | 13° |
| 2026-04-24 10:00 | 32.06522 | 34.74287 | 287 ft | 104 kts | 25° |
| 2026-04-24 10:01 | 32.07110 | 34.74783 | 528 ft | 106 kts | 38° |
| 2026-04-24 10:01 | 32.07671 | 34.75320 | 582 ft | 103 kts | 33° |
| 2026-04-24 10:01 | 32.08088 | 34.75616 | 574 ft | 103 kts | 28° |
| 2026-04-24 10:01 | 32.08562 | 34.75897 | 573 ft | 100 kts | 24° |
| 2026-04-24 10:02 | 32.09183 | 34.76233 | 540 ft | 99 kts | 23° |
| 2026-04-24 10:02 | 32.09808 | 34.76558 | 524 ft | 99 kts | 22° |
| 2026-04-24 10:02 | 32.10440 | 34.76852 | 557 ft | 94 kts | 20° |
| 2026-04-24 10:02 | 32.11040 | 34.77137 | 577 ft | 97 kts | 21° |
| 2026-04-24 10:03 | 32.11714 | 34.77401 | 538 ft | 99 kts | 11° |
| 2026-04-24 10:03 | 32.12370 | 34.77558 | 545 ft | 95 kts | 12° |
| 2026-04-24 10:03 | 32.13004 | 34.77784 | 638 ft | 97 kts | 16° |
| 2026-04-24 10:03 | 32.13671 | 34.78039 | 612 ft | 103 kts | 17° |
| 2026-04-24 10:04 | 32.14348 | 34.78299 | 652 ft | 99 kts | 17° |
| 2026-04-24 10:04 | 32.14970 | 34.78540 | 725 ft | 102 kts | 17° |
| 2026-04-24 10:04 | 32.15693 | 34.78814 | 557 ft | 111 kts | 16° |
| 2026-04-24 10:04 | 32.16405 | 34.79090 | 557 ft | 104 kts | 17° |
| 2026-04-24 10:05 | 32.17097 | 34.79329 | 552 ft | 106 kts | 14° |
| 2026-04-24 10:05 | 32.17821 | 34.79571 | 520 ft | 109 kts | 15° |
| 2026-04-24 10:05 | 32.18544 | 34.79815 | 535 ft | 107 kts | 15° |
| 2026-04-24 10:05 | 32.19263 | 34.80057 | 541 ft | 107 kts | 15° |
| 2026-04-24 10:06 | 32.19980 | 34.80298 | 521 ft | 108 kts | 15° |
| 2026-04-24 10:06 | 32.21416 | 34.80779 | 479 ft | 108 kts | 15° |
| 2026-04-24 10:06 | 32.22147 | 34.81022 | 459 ft | 108 kts | 15° |
| 2026-04-24 10:07 | 32.22866 | 34.81236 | 480 ft | 104 kts | 12° |
| 2026-04-24 10:07 | 32.23565 | 34.81427 | 481 ft | 104 kts | 12° |
| 2026-04-24 10:07 | 32.24270 | 34.81625 | 472 ft | 105 kts | 13° |
| 2026-04-24 10:07 | 32.24988 | 34.81836 | 416 ft | 106 kts | 13° |
| 2026-04-24 10:08 | 32.25704 | 34.82044 | 373 ft | 107 kts | 13° |
| 2026-04-24 10:08 | 32.26436 | 34.82254 | 297 ft | 108 kts | 13° |
| 2026-04-24 10:08 | 32.27157 | 34.82403 | 393 ft | 98 kts | 4° |
| 2026-04-24 10:08 | 32.27841 | 34.82493 | 435 ft | 100 kts | 14° |
| 2026-04-24 10:09 | 32.28492 | 34.82740 | 522 ft | 94 kts | 15° |
| 2026-04-24 10:09 | 32.29137 | 34.82959 | 532 ft | 97 kts | 16° |
| 2026-04-24 10:09 | 32.29781 | 34.83191 | 547 ft | 95 kts | 16° |
| 2026-04-24 10:09 | 32.30425 | 34.83386 | 504 ft | 93 kts | 11° |
| 2026-04-24 10:10 | 32.31045 | 34.83565 | 500 ft | 91 kts | 14° |
| 2026-04-24 10:10 | 32.31654 | 34.83769 | 497 ft | 93 kts | 15° |
| 2026-04-24 10:10 | 32.32278 | 34.83960 | 479 ft | 89 kts | 13° |
| 2026-04-24 10:10 | 32.32898 | 34.84110 | 438 ft | 93 kts | 11° |
| 2026-04-24 10:11 | 32.33484 | 34.84269 | 551 ft | 87 kts | 12° |
| 2026-04-24 10:11 | 32.34107 | 34.84448 | 372 ft | 105 kts | 13° |
| 2026-04-24 10:11 | 32.34809 | 34.84646 | 264 ft | 100 kts | 13° |
| 2026-04-24 10:11 | 32.35396 | 34.84802 | 472 ft | 78 kts | 11° |
| 2026-04-24 10:12 | 32.35940 | 34.84946 | 562 ft | 82 kts | 12° |
| 2026-04-24 10:12 | 32.36521 | 34.85099 | 544 ft | 91 kts | 11° |
| 2026-04-24 10:12 | 32.37149 | 34.85264 | 506 ft | 90 kts | 11° |
| 2026-04-24 10:12 | 32.37766 | 34.85430 | 486 ft | 90 kts | 11° |
| 2026-04-24 10:13 | 32.38382 | 34.85596 | 467 ft | 91 kts | 12° |
| 2026-04-24 10:13 | 32.39014 | 34.85774 | 434 ft | 98 kts | 13° |
| 2026-04-24 10:13 | 32.39693 | 34.85983 | 397 ft | 103 kts | 15° |
| 2026-04-24 10:13 | 32.40385 | 34.86193 | 363 ft | 106 kts | 13° |
| 2026-04-24 10:14 | 32.41111 | 34.86385 | 379 ft | 106 kts | 11° |
| 2026-04-24 10:14 | 32.41830 | 34.86568 | 434 ft | 104 kts | 11° |
| 2026-04-24 10:14 | 32.42528 | 34.86745 | 508 ft | 103 kts | 11° |
| 2026-04-24 10:14 | 32.43221 | 34.86966 | 612 ft | 96 kts | 24° |
| 2026-04-24 10:15 | 32.43398 | 34.87112 | 642 ft | 96 kts | 43° |
| 2026-04-24 10:15 | 32.43827 | 34.87716 | 700 ft | 100 kts | 51° |
| 2026-04-24 10:15 | 32.44213 | 34.88347 | 836 ft | 104 kts | 54° |
| 2026-04-24 10:15 | 32.44637 | 34.89068 | 1023 ft | 109 kts | 55° |
| 2026-04-24 10:16 | 32.45064 | 34.89812 | 1173 ft | 115 kts | 54° |
| 2026-04-24 10:16 | 32.45543 | 34.90578 | 1329 ft | 112 kts | 55° |
| 2026-04-24 10:16 | 32.46110 | 34.91221 | 1377 ft | 117 kts | 22° |
| 2026-04-24 10:16 | 32.46869 | 34.91563 | 1376 ft | 118 kts | 15° |
| 2026-04-24 10:17 | 32.47650 | 34.91820 | 1123 ft | 110 kts | 16° |
| 2026-04-24 10:17 | 32.48357 | 34.92074 | 962 ft | 107 kts | 15° |
| 2026-04-24 10:17 | 32.49069 | 34.92319 | 883 ft | 102 kts | 17° |
| 2026-04-24 10:17 | 32.49770 | 34.92553 | 750 ft | 109 kts | 15° |
| 2026-04-24 10:18 | 32.50409 | 34.92862 | 829 ft | 96 kts | 25° |
| 2026-04-24 10:18 | 32.51057 | 34.92991 | 825 ft | 95 kts | 353° |
| 2026-04-24 10:18 | 32.51691 | 34.92898 | 874 ft | 95 kts | 349° |
| 2026-04-24 10:18 | 32.52379 | 34.92853 | 811 ft | 98 kts | 4° |
| 2026-04-24 10:19 | 32.53039 | 34.92939 | 980 ft | 81 kts | 7° |
| 2026-04-24 10:19 | 32.53566 | 34.93034 | 1112 ft | 86 kts | 6° |
| 2026-04-24 10:19 | 32.54190 | 34.93090 | 1099 ft | 89 kts | 2° |
| 2026-04-24 10:19 | 32.54808 | 34.93120 | 1134 ft | 90 kts | 1° |
| 2026-04-24 10:20 | 32.55409 | 34.93165 | 1263 ft | 85 kts | 4° |
| 2026-04-24 10:20 | 32.55965 | 34.93233 | 1461 ft | 82 kts | 5° |
| 2026-04-24 10:20 | 32.56571 | 34.93315 | 1464 ft | 92 kts | 5° |
| 2026-04-24 10:20 | 32.57218 | 34.93391 | 1437 ft | 94 kts | 5° |
| 2026-04-24 10:21 | 32.57850 | 34.93479 | 1479 ft | 93 kts | 6° |
| 2026-04-24 10:21 | 32.58516 | 34.93580 | 1518 ft | 85 kts | 3° |
| 2026-04-24 10:21 | 32.59081 | 34.93663 | 1709 ft | 83 kts | 12° |
| 2026-04-24 10:21 | 32.59472 | 34.93766 | 1795 ft | 88 kts | 10° |
| 2026-04-24 10:22 | 32.60328 | 34.93968 | 1833 ft | 95 kts | 10° |
| 2026-04-24 10:22 | 32.60953 | 34.94145 | 1991 ft | 90 kts | 16° |
| 2026-04-24 10:22 | 32.61340 | 34.94327 | 2071 ft | 91 kts | 19° |
| 2026-04-24 10:22 | 32.61942 | 34.94586 | 2098 ft | 101 kts | 31° |
| 2026-04-24 10:23 | 32.62684 | 34.95332 | 1782 ft | 103 kts | 36° |
| 2026-04-24 10:23 | 32.63068 | 34.95675 | 1708 ft | 107 kts | 34° |
| 2026-04-24 10:23 | 32.63782 | 34.96010 | 1661 ft | 111 kts | 13° |
| 2026-04-24 10:23 | 32.64472 | 34.96158 | 1802 ft | 112 kts | 7° |
| 2026-04-24 10:24 | 32.65254 | 34.96252 | 1740 ft | 110 kts | 3° |
| 2026-04-24 10:24 | 32.66009 | 34.96294 | 1746 ft | 109 kts | 2° |
| 2026-04-24 10:24 | 32.66768 | 34.96362 | 1737 ft | 109 kts | 5° |
| 2026-04-24 10:24 | 32.67518 | 34.96447 | 1731 ft | 109 kts | 4° |
| 2026-04-24 10:25 | 32.68279 | 34.96532 | 1712 ft | 109 kts | 4° |
| 2026-04-24 10:25 | 32.69034 | 34.96618 | 1686 ft | 109 kts | 4° |
| 2026-04-24 10:25 | 32.69789 | 34.96692 | 1578 ft | 105 kts | 1° |
| 2026-04-24 10:25 | 32.70470 | 34.96707 | 1339 ft | 90 kts | 358° |
| 2026-04-24 10:26 | 32.71027 | 34.96725 | 1334 ft | 70 kts | 1° |
| 2026-04-24 10:26 | 32.71599 | 34.96641 | 1116 ft | 99 kts | 338° |
| 2026-04-24 10:26 | 32.72257 | 34.96328 | 1073 ft | 106 kts | 335° |
| 2026-04-24 10:26 | 32.72918 | 34.95945 | 1024 ft | 105 kts | 331° |
| 2026-04-24 10:27 | 32.73556 | 34.95536 | 955 ft | 104 kts | 330° |
| 2026-04-24 10:27 | 32.74212 | 34.95199 | 906 ft | 103 kts | 340° |
| 2026-04-24 10:27 | 32.74912 | 34.94947 | 795 ft | 105 kts | 341° |
| 2026-04-24 10:27 | 32.75599 | 34.94664 | 683 ft | 105 kts | 339° |
| 2026-04-24 10:28 | 32.76287 | 34.94411 | 621 ft | 103 kts | 341° |
| 2026-04-24 10:28 | 32.76973 | 34.94299 | 674 ft | 100 kts | 357° |
| 2026-04-24 10:28 | 32.77683 | 34.94306 | 637 ft | 107 kts | 1° |
| 2026-04-24 10:28 | 32.78416 | 34.94337 | 657 ft | 105 kts | 0° |
| 2026-04-24 10:29 | 32.79137 | 34.94356 | 723 ft | 102 kts | 1° |
| 2026-04-24 10:29 | 32.79830 | 34.94449 | 868 ft | 92 kts | 7° |
| 2026-04-24 10:29 | 32.80494 | 34.94573 | 867 ft | 106 kts | 8° |
| 2026-04-24 10:29 | 32.81231 | 34.94722 | 771 ft | 111 kts | 9° |
| 2026-04-24 10:30 | 32.81958 | 34.94888 | 685 ft | 96 kts | 12° |
| 2026-04-24 10:30 | 32.82541 | 34.95194 | 631 ft | 93 kts | 39° |
| 2026-04-24 10:30 | 32.82960 | 34.95736 | 669 ft | 93 kts | 51° |
| 2026-04-24 10:30 | 32.83383 | 34.96393 | 614 ft | 104 kts | 52° |
| 2026-04-24 10:31 | 32.83854 | 34.97075 | 611 ft | 109 kts | 50° |
| 2026-04-24 10:31 | 32.84289 | 34.97790 | 686 ft | 103 kts | 58° |
| 2026-04-24 10:31 | 32.84573 | 34.98565 | 758 ft | 103 kts | 93° |
| 2026-04-24 10:31 | 32.84471 | 34.99461 | 670 ft | 112 kts | 100° |
| 2026-04-24 10:32 | 32.84328 | 35.00359 | 670 ft | 111 kts | 101° |
| 2026-04-24 10:32 | 32.84186 | 35.01239 | 737 ft | 107 kts | 101° |
| 2026-04-24 10:32 | 32.84045 | 35.02109 | 801 ft | 107 kts | 101° |
| 2026-04-24 10:32 | 32.83802 | 35.02935 | 812 ft | 111 kts | 119° |
| 2026-04-24 10:33 | 32.83413 | 35.03726 | 829 ft | 112 kts | 122° |
| 2026-04-24 10:33 | 32.82872 | 35.04337 | 864 ft | 109 kts | 149° |
| 2026-04-24 10:33 | 32.82184 | 35.04769 | 926 ft | 116 kts | 153° |
| 2026-04-24 10:33 | 32.81438 | 35.05192 | 941 ft | 123 kts | 156° |
| 2026-04-24 10:34 | 32.80672 | 35.05619 | 985 ft | 123 kts | 155° |
| 2026-04-24 10:34 | 32.79906 | 35.06046 | 1036 ft | 122 kts | 155° |
| 2026-04-24 10:34 | 32.79137 | 35.06363 | 1037 ft | 103 kts | 189° |
| 2026-04-24 10:34 | 32.78613 | 35.06056 | 784 ft | 55 kts | 282° |
| 2026-04-24 10:35 | 32.78827 | 35.05593 | 563 ft | 82 kts | 304° |
| 2026-04-24 10:35 | 32.79250 | 35.05116 | 377 ft | 89 kts | 335° |
| 2026-04-24 10:35 | 32.79808 | 35.04876 | 269 ft | 73 kts | 339° |
| 2026-04-24 10:35 | 32.80153 | 35.04742 | 125 ft | 52 kts | 339° |
| 2026-04-24 10:36 | 32.80482 | 35.04599 | 45 ft | 49 kts | 339° |
| 2026-04-24 10:36 | 32.80771 | 35.04473 | 23 ft | 38 kts | 340° |
| 2026-04-24 10:36 | 32.80930 | 35.04395 | 22 ft | 11 kts | 278° |
| 2026-04-24 10:36 | 32.80909 | 35.04326 | 22 ft | 4 kts | 250° |
| 2026-04-24 10:37 | 32.80905 | 35.04314 | 22 ft | 0 kts | 252° |
| 2026-04-24 10:37 | 32.80935 | 35.04372 | 23 ft | 15 kts | 68° |
| 2026-04-24 10:37 | 32.81021 | 35.04366 | 21 ft | 15 kts | 339° |
| 2026-04-24 10:37 | 32.81119 | 35.04323 | 21 ft | 14 kts | 341° |
| 2026-04-24 10:38 | 32.81164 | 35.04258 | 21 ft | 11 kts | 250° |
| 2026-04-24 10:38 | 32.81153 | 35.04206 | 20 ft | 4 kts | 216° |
| 2026-04-24 10:38 | 32.81126 | 35.04210 | 20 ft | 4 kts | 96° |
| 2026-04-24 10:38 | 32.81132 | 35.04216 | 20 ft | 0 kts | 341° |